createdAt,value
2022-10-07T00:00:00.016Z,10.82
2022-10-07T00:02:05.676Z,10.78
2022-10-07T00:04:10.404Z,10.79
2022-10-07T00:06:18.043Z,10.78
2022-10-07T00:08:22.714Z,10.79
2022-10-07T00:10:27.697Z,10.79
2022-10-07T00:12:33.571Z,10.77
2022-10-07T00:14:42.538Z,10.74
2022-10-07T00:16:47.294Z,10.72
2022-10-07T00:18:52.099Z,10.72
2022-10-07T00:20:56.790Z,10.70
2022-10-07T00:23:01.476Z,10.65
2022-10-07T00:25:06.440Z,10.63
2022-10-07T00:27:11.200Z,10.61
2022-10-07T00:29:15.939Z,10.58
2022-10-07T00:31:24.914Z,10.55
2022-10-07T00:33:30.010Z,10.52
2022-10-07T00:35:37.754Z,10.51
2022-10-07T00:37:44.293Z,10.47
2022-10-07T00:39:49.273Z,10.49
2022-10-07T00:41:55.513Z,10.43
2022-10-07T00:44:00.272Z,10.45
2022-10-07T00:46:10.782Z,10.45
2022-10-07T00:48:20.544Z,10.45
2022-10-07T00:50:30.714Z,10.46
2022-10-07T00:52:40.574Z,10.46
2022-10-07T00:54:46.165Z,10.48
2022-10-07T00:56:54.076Z,10.50
2022-10-07T00:59:01.699Z,10.50
2022-10-07T01:01:08.156Z,10.51
2022-10-07T01:03:12.956Z,10.49
2022-10-07T01:05:21.238Z,10.27
2022-10-07T01:07:26.066Z,10.16
2022-10-07T01:09:31.030Z,10.00
2022-10-07T01:11:49.054Z,10.05
2022-10-07T01:14:04.534Z,10.08
2022-10-07T01:16:17.457Z,10.11
2022-10-07T01:18:28.466Z,10.18
2022-10-07T01:20:41.140Z,10.23
2022-10-07T01:22:56.077Z,10.31
2022-10-07T01:25:18.793Z,10.35
2022-10-07T01:27:29.612Z,10.38
2022-10-07T01:29:41.216Z,10.41
2022-10-07T01:31:50.721Z,10.44
2022-10-07T01:33:57.418Z,10.40
2022-10-07T01:36:09.573Z,10.43
2022-10-07T01:38:17.886Z,10.48
2022-10-07T01:40:27.181Z,10.46
2022-10-07T01:42:35.237Z,10.45
2022-10-07T01:44:42.796Z,10.34
2022-10-07T01:46:49.614Z,10.21
2022-10-07T01:48:55.035Z,10.08
2022-10-07T01:51:00.514Z,10.04
2022-10-07T01:53:17.901Z,10.09
2022-10-07T01:55:38.329Z,10.16
2022-10-07T01:57:56.131Z,10.23
2022-10-07T02:00:12.834Z,10.26
2022-10-07T02:02:30.727Z,10.27
2022-10-07T02:04:59.315Z,10.29
2022-10-07T02:07:17.786Z,10.29
2022-10-07T02:09:29.346Z,10.30
2022-10-07T02:11:41.299Z,10.34
2022-10-07T02:14:00.427Z,10.34
2022-10-07T02:16:18.794Z,10.36
2022-10-07T02:18:23.680Z,10.37
2022-10-07T02:20:34.126Z,10.34
2022-10-07T02:22:41.728Z,10.35
2022-10-07T02:24:48.454Z,10.35
2022-10-07T02:26:56.767Z,10.37
2022-10-07T02:29:07.719Z,10.41
2022-10-07T02:31:18.215Z,10.36
2022-10-07T02:33:27.435Z,10.35
2022-10-07T02:35:37.681Z,10.35
2022-10-07T02:37:47.196Z,10.34
2022-10-07T02:39:52.244Z,10.35
2022-10-07T02:42:03.689Z,10.38
2022-10-07T02:44:21.795Z,10.38
2022-10-07T02:46:30.594Z,10.38
2022-10-07T02:48:42.238Z,10.40
2022-10-07T02:50:51.796Z,10.45
2022-10-07T02:52:58.943Z,10.49
2022-10-07T02:55:08.649Z,10.51
2022-10-07T02:57:16.407Z,10.54
2022-10-07T02:59:25.791Z,10.60
2022-10-07T03:01:35.381Z,10.55
2022-10-07T03:03:40.316Z,10.56
2022-10-07T03:05:45.199Z,10.55
2022-10-07T03:07:51.293Z,10.50
2022-10-07T03:09:56.437Z,10.46
2022-10-07T03:12:01.038Z,10.38
2022-10-07T03:14:06.309Z,10.34
2022-10-07T03:16:13.728Z,10.29
2022-10-07T03:18:29.433Z,10.21
2022-10-07T03:20:43.060Z,10.20
2022-10-07T03:22:48.180Z,10.19
2022-10-07T03:24:55.533Z,10.17
2022-10-07T03:27:03.073Z,10.19
2022-10-07T03:29:08.525Z,10.16
2022-10-07T03:31:16.984Z,10.15
2022-10-07T03:33:26.791Z,10.14
2022-10-07T03:35:31.991Z,10.16
2022-10-07T03:37:37.220Z,10.16
2022-10-07T03:39:43.680Z,10.18
2022-10-07T03:41:50.183Z,10.15
2022-10-07T03:43:59.238Z,10.12
2022-10-07T03:46:05.369Z,10.10
2022-10-07T03:48:15.256Z,10.08
2022-10-07T03:50:20.054Z,10.01
2022-10-07T03:52:24.843Z,9.96
2022-10-07T03:54:31.291Z,9.95
2022-10-07T03:56:36.095Z,9.97
2022-10-07T03:58:41.173Z,9.98
2022-10-07T04:00:48.695Z,9.95
2022-10-07T04:02:53.978Z,9.93
2022-10-07T04:05:01.123Z,9.94
2022-10-07T04:07:06.185Z,9.99
2022-10-07T04:09:11.371Z,10.05
2022-10-07T04:11:17.912Z,10.07
2022-10-07T04:13:23.208Z,10.12
2022-10-07T04:15:29.746Z,10.13
2022-10-07T04:17:35.717Z,10.10
2022-10-07T04:19:40.597Z,10.07
2022-10-07T04:21:47.951Z,10.13
2022-10-07T04:23:53.176Z,10.16
2022-10-07T04:25:58.177Z,10.17
2022-10-07T04:28:04.994Z,10.23
2022-10-07T04:30:11.373Z,10.24
2022-10-07T04:32:18.153Z,10.21
2022-10-07T04:34:23.055Z,10.25
2022-10-07T04:36:28.610Z,10.26
2022-10-07T04:38:46.699Z,10.24
2022-10-07T04:40:53.046Z,10.26
2022-10-07T04:43:12.615Z,10.30
2022-10-07T04:45:18.154Z,10.36
2022-10-07T04:47:22.987Z,10.35
2022-10-07T04:49:27.943Z,10.30
2022-10-07T04:51:33.863Z,10.33
2022-10-07T04:53:40.032Z,10.31
2022-10-07T04:55:52.003Z,10.34
2022-10-07T04:57:58.849Z,10.38
2022-10-07T05:00:03.613Z,10.41
2022-10-07T05:02:08.722Z,10.40
2022-10-07T05:04:14.481Z,10.42
2022-10-07T05:06:19.268Z,10.43
2022-10-07T05:08:27.161Z,10.44
2022-10-07T05:10:33.688Z,10.46
2022-10-07T05:12:41.617Z,10.53
2022-10-07T05:14:46.809Z,10.49
2022-10-07T05:16:52.368Z,10.46
2022-10-07T05:19:00.117Z,10.46
2022-10-07T05:21:07.942Z,10.48
2022-10-07T05:23:17.464Z,10.47
2022-10-07T05:25:22.845Z,10.50
2022-10-07T05:27:28.029Z,10.54
2022-10-07T05:29:35.433Z,10.55
2022-10-07T05:31:40.350Z,10.54
2022-10-07T05:33:46.235Z,10.51
2022-10-07T05:35:51.376Z,10.49
2022-10-07T05:37:56.645Z,10.47
2022-10-07T05:40:01.816Z,10.45
2022-10-07T05:42:07.493Z,10.47
2022-10-07T05:44:20.526Z,10.56
2022-10-07T05:46:30.553Z,10.62
2022-10-07T05:48:39.530Z,10.61
2022-10-07T05:50:50.162Z,10.67
2022-10-07T05:52:55.069Z,10.74
2022-10-07T05:55:00.741Z,10.81
2022-10-07T05:57:05.543Z,10.89
2022-10-07T05:59:12.002Z,10.95
2022-10-07T06:01:20.698Z,11.06
2022-10-07T06:03:29.253Z,11.16
2022-10-07T06:05:35.565Z,11.24
2022-10-07T06:07:40.570Z,11.27
2022-10-07T06:09:59.069Z,11.32
2022-10-07T06:12:16.548Z,11.36
2022-10-07T06:14:22.199Z,11.36
2022-10-07T06:16:27.863Z,11.39
2022-10-07T06:18:35.850Z,11.42
2022-10-07T06:20:40.720Z,11.44
2022-10-07T06:22:45.739Z,11.47
2022-10-07T06:24:56.588Z,11.53
2022-10-07T06:27:02.158Z,11.56
2022-10-07T06:29:08.365Z,11.61
2022-10-07T06:31:15.348Z,11.63
2022-10-07T06:33:22.302Z,11.67
2022-10-07T06:35:29.737Z,11.64
2022-10-07T06:37:35.702Z,11.57
2022-10-07T06:39:41.273Z,11.52
2022-10-07T06:41:47.329Z,11.53
2022-10-07T06:44:11.791Z,11.57
2022-10-07T06:46:23.104Z,11.57
2022-10-07T06:48:29.945Z,11.61
2022-10-07T06:50:37.492Z,11.52
2022-10-07T06:52:43.588Z,11.56
2022-10-07T06:54:48.990Z,11.54
2022-10-07T06:56:55.597Z,11.46
2022-10-07T06:59:01.995Z,11.48
2022-10-07T07:01:15.946Z,11.56
2022-10-07T07:03:20.892Z,11.64
2022-10-07T07:05:25.704Z,11.66
2022-10-07T07:07:33.061Z,11.75
2022-10-07T07:09:38.489Z,11.81
2022-10-07T07:11:45.404Z,11.71
2022-10-07T07:13:57.509Z,11.76
2022-10-07T07:16:03.710Z,11.84
2022-10-07T07:18:13.580Z,11.89
2022-10-07T07:20:18.565Z,12.00
2022-10-07T07:22:23.431Z,12.10
2022-10-07T07:24:31.185Z,12.06
2022-10-07T07:26:36.556Z,12.13
2022-10-07T07:28:41.798Z,12.19
2022-10-07T07:30:48.912Z,12.24
2022-10-07T07:32:54.009Z,12.24
2022-10-07T07:35:00.830Z,12.23
2022-10-07T07:37:08.602Z,12.27
2022-10-07T07:39:20.949Z,12.26
2022-10-07T07:41:38.868Z,12.24
2022-10-07T07:43:43.702Z,12.28
2022-10-07T07:45:48.815Z,12.33
2022-10-07T07:47:53.690Z,12.38
2022-10-07T07:49:58.671Z,12.40
2022-10-07T07:52:08.624Z,12.44
2022-10-07T07:54:19.089Z,12.46
2022-10-07T07:56:26.237Z,12.49
2022-10-07T07:58:33.706Z,12.50
2022-10-07T08:00:38.511Z,12.54
2022-10-07T08:02:45.455Z,12.55
2022-10-07T08:04:54.822Z,12.54
2022-10-07T08:07:00.896Z,12.58
2022-10-07T08:09:06.966Z,12.65
2022-10-07T08:11:12.181Z,12.69
2022-10-07T08:13:18.195Z,12.60
2022-10-07T08:15:25.619Z,12.68
2022-10-07T08:17:31.124Z,12.76
2022-10-07T08:19:35.926Z,12.83
2022-10-07T08:21:42.460Z,12.95
2022-10-07T08:23:56.461Z,13.04
2022-10-07T08:26:04.150Z,13.01
2022-10-07T08:28:09.468Z,13.06
2022-10-07T08:30:15.128Z,13.12
2022-10-07T08:32:22.477Z,13.19
2022-10-07T08:34:27.274Z,13.29
2022-10-07T08:36:34.476Z,13.26
2022-10-07T08:38:41.562Z,13.31
2022-10-07T08:40:50.898Z,13.30
2022-10-07T08:42:55.928Z,13.21
2022-10-07T08:45:00.784Z,13.22
2022-10-07T08:47:14.271Z,13.27
2022-10-07T08:49:27.814Z,13.36
2022-10-07T08:51:39.359Z,13.34
2022-10-07T08:53:44.695Z,13.38
2022-10-07T08:55:54.999Z,13.45
2022-10-07T08:58:19.742Z,13.53
2022-10-07T09:00:39.929Z,13.62
2022-10-07T09:02:58.374Z,13.73
2022-10-07T09:05:15.515Z,13.84
2022-10-07T09:07:34.319Z,13.92
2022-10-07T09:09:43.161Z,13.97
2022-10-07T09:11:50.729Z,14.04
2022-10-07T09:14:00.310Z,14.10
2022-10-07T09:16:09.621Z,14.17
2022-10-07T09:18:20.728Z,14.26
2022-10-07T09:20:35.783Z,14.33
2022-10-07T09:22:42.812Z,14.26
2022-10-07T09:24:49.213Z,14.25
2022-10-07T09:26:56.175Z,14.32
2022-10-07T09:29:02.145Z,14.35
2022-10-07T09:31:07.173Z,14.41
2022-10-07T09:33:18.613Z,14.44
2022-10-07T09:35:26.300Z,14.42
2022-10-07T09:37:34.209Z,14.49
2022-10-07T09:39:39.125Z,14.57
2022-10-07T09:41:47.233Z,14.67
2022-10-07T09:44:01.926Z,14.76
2022-10-07T09:46:07.388Z,14.84
2022-10-07T09:48:23.665Z,14.91
2022-10-07T09:50:36.531Z,15.04
2022-10-07T09:52:58.167Z,15.17
2022-10-07T09:55:37.790Z,15.22
2022-10-07T09:57:43.696Z,15.20
2022-10-07T09:59:48.679Z,15.25
2022-10-07T10:01:55.685Z,15.31
2022-10-07T10:04:01.274Z,15.39
2022-10-07T10:06:09.016Z,15.37
2022-10-07T10:08:28.193Z,15.43
2022-10-07T10:10:35.406Z,15.50
2022-10-07T10:12:49.416Z,15.52
2022-10-07T10:14:55.820Z,15.57
2022-10-07T10:17:00.687Z,15.61
2022-10-07T10:19:07.921Z,15.73
2022-10-07T10:21:30.278Z,15.85
2022-10-07T10:23:39.998Z,15.98
2022-10-07T10:26:06.041Z,16.07
2022-10-07T10:28:17.929Z,16.10
2022-10-07T10:30:25.276Z,16.13
2022-10-07T10:32:54.029Z,16.28
2022-10-07T10:35:05.657Z,16.19
2022-10-07T10:37:18.531Z,16.32
2022-10-07T10:39:39.257Z,16.37
2022-10-07T10:41:51.171Z,16.44
2022-10-07T10:44:20.736Z,16.48
2022-10-07T10:46:51.073Z,16.45
2022-10-07T10:49:02.402Z,16.50
2022-10-07T10:51:21.452Z,16.59
2022-10-07T10:53:37.844Z,16.56
2022-10-07T10:56:06.438Z,16.44
2022-10-07T10:58:24.140Z,16.58
2022-10-07T11:00:35.817Z,16.64
2022-10-07T11:03:00.836Z,16.78
2022-10-07T11:05:08.830Z,16.75
2022-10-07T11:07:24.460Z,16.78
2022-10-07T11:09:33.444Z,16.70
2022-10-07T11:11:40.792Z,16.73
2022-10-07T11:13:49.177Z,16.72
2022-10-07T11:15:58.703Z,16.83
2022-10-07T11:18:08.325Z,16.83
2022-10-07T11:20:21.688Z,16.80
2022-10-07T11:22:40.405Z,16.80
2022-10-07T11:24:50.841Z,16.74
2022-10-07T11:27:02.557Z,16.64
2022-10-07T11:29:21.271Z,16.72
2022-10-07T11:31:33.530Z,16.81
2022-10-07T11:33:45.176Z,16.92
2022-10-07T11:35:55.334Z,16.98
2022-10-07T11:38:06.139Z,17.14
2022-10-07T11:40:12.679Z,17.08
2022-10-07T11:42:25.685Z,17.19
2022-10-07T11:44:34.687Z,17.34
2022-10-07T11:46:44.947Z,17.36
2022-10-07T11:48:54.626Z,17.41
2022-10-07T11:51:04.897Z,17.58
2022-10-07T11:53:13.730Z,17.52
2022-10-07T11:55:25.186Z,17.52
2022-10-07T11:57:34.831Z,17.45
2022-10-07T11:59:46.344Z,17.36
2022-10-07T12:01:56.969Z,17.35
2022-10-07T12:04:38.980Z,17.45
2022-10-07T12:07:18.730Z,17.44
2022-10-07T12:09:53.542Z,17.40
2022-10-07T12:11:59.607Z,17.36
2022-10-07T12:14:42.922Z,17.41
2022-10-07T12:16:57.660Z,17.35
2022-10-07T12:19:24.047Z,17.44
2022-10-07T12:21:29.136Z,17.45
2022-10-07T12:23:51.610Z,17.54
2022-10-07T12:26:04.909Z,17.60
2022-10-07T12:28:19.002Z,17.58
2022-10-07T12:30:44.658Z,17.62
2022-10-07T12:33:01.236Z,17.60
2022-10-07T12:35:54.895Z,17.49
2022-10-07T12:38:05.341Z,17.49
2022-10-07T12:40:18.120Z,17.39
2022-10-07T12:42:23.182Z,17.40
2022-10-07T12:44:34.215Z,17.40
2022-10-07T12:46:49.425Z,17.42
2022-10-07T12:49:01.657Z,17.51
2022-10-07T12:51:09.706Z,17.60
2022-10-07T12:53:15.311Z,17.67
2022-10-07T12:55:29.182Z,17.73
2022-10-07T12:57:36.893Z,17.80
2022-10-07T12:59:47.555Z,17.84
2022-10-07T13:02:28.877Z,17.88
2022-10-07T13:04:53.761Z,17.97
2022-10-07T13:07:31.314Z,18.02
2022-10-07T13:10:01.607Z,18.06
2022-10-07T13:12:18.129Z,18.15
2022-10-07T13:14:29.395Z,18.11
2022-10-07T13:16:39.831Z,18.09
2022-10-07T13:18:55.283Z,18.08
2022-10-07T13:21:12.680Z,18.10
2022-10-07T13:23:24.557Z,18.13
2022-10-07T13:25:32.858Z,18.14
2022-10-07T13:27:38.715Z,18.15
2022-10-07T13:29:44.174Z,18.16
2022-10-07T13:32:05.591Z,18.16
2022-10-07T13:34:22.786Z,18.10
2022-10-07T13:36:29.829Z,18.10
2022-10-07T13:38:34.932Z,18.11
2022-10-07T13:40:39.986Z,18.09
2022-10-07T13:42:45.095Z,18.09
2022-10-07T13:44:50.050Z,18.13
2022-10-07T13:47:00.183Z,18.15
2022-10-07T13:49:06.137Z,18.14
2022-10-07T13:51:27.480Z,18.16
2022-10-07T13:53:35.042Z,18.18
2022-10-07T13:55:39.845Z,18.20
2022-10-07T13:57:44.606Z,18.21
2022-10-07T13:59:51.772Z,18.23
2022-10-07T14:01:59.206Z,18.27
2022-10-07T14:04:10.791Z,18.23
2022-10-07T14:06:40.629Z,18.24
2022-10-07T14:08:53.488Z,18.31
2022-10-07T14:11:03.559Z,18.26
2022-10-07T14:13:09.827Z,18.28
2022-10-07T14:15:18.421Z,18.29
2022-10-07T14:17:31.553Z,18.32
2022-10-07T14:19:36.427Z,18.30
2022-10-07T14:21:45.794Z,18.31
2022-10-07T14:23:50.592Z,18.36
2022-10-07T14:25:57.860Z,18.36
2022-10-07T14:28:19.363Z,18.38
2022-10-07T14:30:29.564Z,18.40
2022-10-07T14:32:46.994Z,18.41
2022-10-07T14:35:04.447Z,18.41
2022-10-07T14:37:13.746Z,18.40
2022-10-07T14:39:33.477Z,18.38
2022-10-07T14:41:38.544Z,18.36
2022-10-07T14:43:44.933Z,18.30
2022-10-07T14:45:49.638Z,18.25
2022-10-07T14:47:54.432Z,18.23
2022-10-07T14:50:01.290Z,18.26
2022-10-07T14:52:07.114Z,18.26
2022-10-07T14:54:15.300Z,18.26
2022-10-07T14:56:26.949Z,18.28
2022-10-07T14:58:31.704Z,18.28
2022-10-07T15:00:39.605Z,18.26
2022-10-07T15:02:45.079Z,18.26
2022-10-07T15:04:51.226Z,18.25
2022-10-07T15:06:56.072Z,18.22
2022-10-07T15:09:00.840Z,18.20
2022-10-07T15:11:08.616Z,18.21
2022-10-07T15:13:14.365Z,18.22
2022-10-07T15:15:19.210Z,18.23
2022-10-07T15:17:23.987Z,18.23
2022-10-07T15:19:28.996Z,18.21
2022-10-07T15:21:33.977Z,18.23
2022-10-07T15:23:38.710Z,18.26
2022-10-07T15:25:44.000Z,18.23
2022-10-07T15:27:51.812Z,18.25
2022-10-07T15:29:56.568Z,18.21
2022-10-07T15:32:01.306Z,18.22
2022-10-07T15:34:07.127Z,18.22
2022-10-07T15:36:13.237Z,18.19
2022-10-07T15:38:17.998Z,18.22
2022-10-07T15:40:22.933Z,18.21
2022-10-07T15:42:28.206Z,18.21
2022-10-07T15:44:35.286Z,18.15
2022-10-07T15:46:40.179Z,18.13
2022-10-07T15:48:44.954Z,18.15
2022-10-07T15:50:50.705Z,18.15
2022-10-07T15:52:55.425Z,18.14
2022-10-07T15:55:05.092Z,18.13
2022-10-07T15:57:12.066Z,18.14
2022-10-07T15:59:17.063Z,18.14
2022-10-07T16:01:26.547Z,18.12
2022-10-07T16:03:35.728Z,18.10
2022-10-07T16:05:40.477Z,18.05
2022-10-07T16:07:45.240Z,18.03
2022-10-07T16:09:49.971Z,18.00
2022-10-07T16:11:54.923Z,17.99
2022-10-07T16:14:02.094Z,17.97
2022-10-07T16:16:09.560Z,17.94
2022-10-07T16:18:16.931Z,17.90
2022-10-07T16:20:21.665Z,17.85
2022-10-07T16:22:26.468Z,17.82
2022-10-07T16:24:35.156Z,17.81
2022-10-07T16:26:40.402Z,17.79
2022-10-07T16:28:59.176Z,17.76
2022-10-07T16:31:04.040Z,17.72
2022-10-07T16:33:08.843Z,17.67
2022-10-07T16:35:16.289Z,17.64
2022-10-07T16:37:21.010Z,17.62
2022-10-07T16:39:25.936Z,17.60
2022-10-07T16:41:30.859Z,17.55
2022-10-07T16:43:35.950Z,17.50
2022-10-07T16:45:41.717Z,17.42
2022-10-07T16:47:46.764Z,17.39
2022-10-07T16:49:52.216Z,17.36
2022-10-07T16:52:00.537Z,17.36
2022-10-07T16:54:07.502Z,17.30
2022-10-07T16:56:12.212Z,17.26
2022-10-07T16:58:16.992Z,17.23
2022-10-07T17:00:22.184Z,17.22
2022-10-07T17:02:30.207Z,17.19
2022-10-07T17:04:34.974Z,17.18
2022-10-07T17:06:40.122Z,17.15
2022-10-07T17:08:48.913Z,17.13
2022-10-07T17:10:53.989Z,17.07
2022-10-07T17:12:58.768Z,17.01
2022-10-07T17:15:03.577Z,16.97
2022-10-07T17:17:08.505Z,16.92
2022-10-07T17:19:15.647Z,16.86
2022-10-07T17:21:20.814Z,16.83
2022-10-07T17:23:27.051Z,16.74
2022-10-07T17:25:34.373Z,16.70
2022-10-07T17:27:39.141Z,16.66
2022-10-07T17:29:43.872Z,16.64
2022-10-07T17:31:50.842Z,16.61
2022-10-07T17:33:55.773Z,16.59
2022-10-07T17:36:06.876Z,16.55
2022-10-07T17:38:11.744Z,16.49
2022-10-07T17:40:16.698Z,16.44
2022-10-07T17:42:24.157Z,16.37
2022-10-07T17:44:30.069Z,16.32
2022-10-07T17:46:36.646Z,16.30
2022-10-07T17:48:45.062Z,16.28
2022-10-07T17:50:49.825Z,16.26
2022-10-07T17:52:54.600Z,16.24
2022-10-07T17:54:59.540Z,16.19
2022-10-07T17:57:04.474Z,16.14
2022-10-07T17:59:12.378Z,16.12
2022-10-07T18:01:19.608Z,16.07
2022-10-07T18:03:24.689Z,16.05
2022-10-07T18:05:29.444Z,16.01
2022-10-07T18:07:35.155Z,15.98
2022-10-07T18:09:40.058Z,15.92
2022-10-07T18:11:57.264Z,15.89
2022-10-07T18:14:14.424Z,15.84
2022-10-07T18:16:23.267Z,15.82
2022-10-07T18:18:30.056Z,15.81
2022-10-07T18:20:34.772Z,15.81
2022-10-07T18:22:39.563Z,15.79
2022-10-07T18:24:46.107Z,15.80
2022-10-07T18:26:50.824Z,15.81
2022-10-07T18:28:57.570Z,15.81
2022-10-07T18:31:02.774Z,15.81
2022-10-07T18:33:10.280Z,15.81
2022-10-07T18:35:15.092Z,15.81
2022-10-07T18:37:19.797Z,15.78
2022-10-07T18:39:24.676Z,15.73
2022-10-07T18:41:29.692Z,15.68
2022-10-07T18:43:35.751Z,15.60
2022-10-07T18:45:40.604Z,15.52
2022-10-07T18:47:45.569Z,15.50
2022-10-07T18:49:55.010Z,15.48
2022-10-07T18:51:59.734Z,15.45
2022-10-07T18:54:04.432Z,15.42
2022-10-07T18:56:11.238Z,15.42
2022-10-07T18:58:16.252Z,15.39
2022-10-07T19:00:21.223Z,15.39
2022-10-07T19:02:25.954Z,15.38
2022-10-07T19:04:32.667Z,15.38
2022-10-07T19:06:43.917Z,15.37
2022-10-07T19:08:49.145Z,15.33
2022-10-07T19:10:53.686Z,15.25
2022-10-07T19:13:10.962Z,15.23
2022-10-07T19:15:15.690Z,15.25
2022-10-07T19:17:20.474Z,15.25
2022-10-07T19:19:26.784Z,15.28
2022-10-07T19:21:31.907Z,15.26
2022-10-07T19:23:39.052Z,15.24
2022-10-07T19:25:47.710Z,15.27
2022-10-07T19:27:52.442Z,15.32
2022-10-07T19:29:58.461Z,15.37
2022-10-07T19:32:07.809Z,15.42
2022-10-07T19:34:14.904Z,15.45
2022-10-07T19:36:21.892Z,15.45
2022-10-07T19:38:27.208Z,15.50
2022-10-07T19:40:40.115Z,15.52
2022-10-07T19:42:44.850Z,15.55
2022-10-07T19:44:49.659Z,15.55
2022-10-07T19:46:54.754Z,15.54
2022-10-07T19:49:01.206Z,15.52
2022-10-07T19:51:08.707Z,15.53
2022-10-07T19:53:14.861Z,15.53
2022-10-07T19:55:19.858Z,15.52
2022-10-07T19:57:27.377Z,15.48
2022-10-07T19:59:32.178Z,15.42
2022-10-07T20:01:39.506Z,15.40
2022-10-07T20:03:44.903Z,15.38
2022-10-07T20:05:49.597Z,15.33
2022-10-07T20:07:54.670Z,15.34
2022-10-07T20:10:01.091Z,15.36
2022-10-07T20:12:06.556Z,15.35
2022-10-07T20:14:16.319Z,15.35
2022-10-07T20:16:23.744Z,15.34
2022-10-07T20:18:28.505Z,15.35
2022-10-07T20:20:33.501Z,15.34
2022-10-07T20:22:38.355Z,15.35
2022-10-07T20:24:43.121Z,15.31
2022-10-07T20:26:47.941Z,15.27
2022-10-07T20:28:54.244Z,15.26
2022-10-07T20:31:05.145Z,15.26
2022-10-07T20:33:10.008Z,15.20
2022-10-07T20:35:14.746Z,15.20
2022-10-07T20:37:19.477Z,15.19
2022-10-07T20:39:36.792Z,15.17
2022-10-07T20:41:54.042Z,15.15
2022-10-07T20:43:59.161Z,15.16
2022-10-07T20:46:06.281Z,15.14
2022-10-07T20:48:10.994Z,15.16
2022-10-07T20:50:16.398Z,15.17
2022-10-07T20:52:22.956Z,15.19
2022-10-07T20:54:29.013Z,15.19
2022-10-07T20:56:34.732Z,15.17
2022-10-07T20:58:39.542Z,15.17
2022-10-07T21:00:44.266Z,15.16
2022-10-07T21:02:51.957Z,15.13
2022-10-07T21:04:59.134Z,15.11
2022-10-07T21:07:03.963Z,15.11
2022-10-07T21:09:09.813Z,15.08
2022-10-07T21:11:14.586Z,15.07
2022-10-07T21:13:19.319Z,15.04
2022-10-07T21:15:24.055Z,15.02
2022-10-07T21:17:28.909Z,15.01
2022-10-07T21:19:36.423Z,15.02
2022-10-07T21:21:41.215Z,15.02
2022-10-07T21:23:46.002Z,14.96
2022-10-07T21:25:51.826Z,14.99
2022-10-07T21:27:56.626Z,14.98
2022-10-07T21:30:01.365Z,14.98
2022-10-07T21:32:06.458Z,14.93
2022-10-07T21:34:11.673Z,14.92
2022-10-07T21:36:21.008Z,14.87
2022-10-07T21:38:25.720Z,14.84
2022-10-07T21:40:32.210Z,14.83
2022-10-07T21:42:36.886Z,14.81
2022-10-07T21:44:41.592Z,14.77
2022-10-07T21:46:46.758Z,14.77
2022-10-07T21:48:52.200Z,14.80
2022-10-07T21:50:57.580Z,14.79
2022-10-07T21:53:04.989Z,14.79
2022-10-07T21:55:10.413Z,14.78
2022-10-07T21:57:15.274Z,14.74
2022-10-07T21:59:19.958Z,14.70
2022-10-07T22:01:26.447Z,14.67
2022-10-07T22:03:31.173Z,14.66
2022-10-07T22:05:36.285Z,14.65
2022-10-07T22:07:53.464Z,14.65
2022-10-07T22:10:01.338Z,14.66
2022-10-07T22:12:06.049Z,14.63
2022-10-07T22:14:12.756Z,14.67
2022-10-07T22:16:20.728Z,14.71
2022-10-07T22:18:25.602Z,14.74
2022-10-07T22:20:30.334Z,14.73
2022-10-07T22:22:35.252Z,14.68
2022-10-07T22:24:40.050Z,14.66
2022-10-07T22:26:51.400Z,14.65
2022-10-07T22:28:57.243Z,14.58
2022-10-07T22:31:02.048Z,14.56
2022-10-07T22:33:06.879Z,14.54
2022-10-07T22:35:30.756Z,14.48
2022-10-07T22:37:35.443Z,14.44
2022-10-07T22:39:41.211Z,14.43
2022-10-07T22:41:48.694Z,14.44
2022-10-07T22:43:53.823Z,14.42
2022-10-07T22:45:59.702Z,14.44
2022-10-07T22:48:04.561Z,14.48
2022-10-07T22:50:10.630Z,14.50
2022-10-07T22:52:15.381Z,14.52
2022-10-07T22:54:20.075Z,14.54
2022-10-07T22:56:26.102Z,14.58
2022-10-07T22:58:33.397Z,14.65
2022-10-07T23:00:38.345Z,14.68
2022-10-07T23:02:44.661Z,14.72
2022-10-07T23:04:49.747Z,14.76
2022-10-07T23:06:54.444Z,14.80
2022-10-07T23:08:59.423Z,14.81
2022-10-07T23:11:05.715Z,14.79
2022-10-07T23:13:10.448Z,14.77
2022-10-07T23:15:19.724Z,14.76
2022-10-07T23:17:24.838Z,14.72
2022-10-07T23:19:30.190Z,14.65
2022-10-07T23:21:37.538Z,14.61
2022-10-07T23:23:44.122Z,14.59
2022-10-07T23:25:48.980Z,14.57
2022-10-07T23:27:54.234Z,14.55
2022-10-07T23:29:58.685Z,14.50
2022-10-07T23:32:06.054Z,14.48
2022-10-07T23:34:13.940Z,14.50
2022-10-07T23:36:20.177Z,14.54
2022-10-07T23:38:26.282Z,14.56
2022-10-07T23:40:30.958Z,14.58
2022-10-07T23:42:35.778Z,14.60
2022-10-07T23:44:40.597Z,14.64
2022-10-07T23:46:45.463Z,14.59
2022-10-07T23:48:53.210Z,14.58
2022-10-07T23:50:58.100Z,14.55
2022-10-07T23:53:02.949Z,14.50
2022-10-07T23:55:10.344Z,14.48
2022-10-07T23:57:15.094Z,14.44
2022-10-07T23:59:20.144Z,14.41
